sensor_id;sensor_type;location;lat;lon;timestamp;temperature;humidity
8798;DHT22;4435;50.898;4.734;2022-08-19T00:01:56;20.20;99.90
8798;DHT22;4435;50.898;4.734;2022-08-19T00:04:29;20.10;99.90
8798;DHT22;4435;50.898;4.734;2022-08-19T00:06:56;20.10;99.90
8798;DHT22;4435;50.898;4.734;2022-08-19T00:09:23;20.10;99.90
8798;DHT22;4435;50.898;4.734;2022-08-19T00:11:49;20.10;99.90
8798;DHT22;4435;50.898;4.734;2022-08-19T00:14:16;20.10;99.90
8798;DHT22;4435;50.898;4.734;2022-08-19T00:16:45;20.00;99.90
8798;DHT22;4435;50.898;4.734;2022-08-19T00:19:11;20.10;99.90
8798;DHT22;4435;50.898;4.734;2022-08-19T00:21:37;20.10;99.90
8798;DHT22;4435;50.898;4.734;2022-08-19T00:24:06;20.10;99.90
8798;DHT22;4435;50.898;4.734;2022-08-19T00:26:33;20.00;99.90
8798;DHT22;4435;50.898;4.734;2022-08-19T00:28:59;20.00;99.90
8798;DHT22;4435;50.898;4.734;2022-08-19T00:31:26;20.10;99.90
8798;DHT22;4435;50.898;4.734;2022-08-19T00:33:53;20.00;99.90
8798;DHT22;4435;50.898;4.734;2022-08-19T00:36:19;20.10;99.90
8798;DHT22;4435;50.898;4.734;2022-08-19T00:38:45;20.10;99.90
8798;DHT22;4435;50.898;4.734;2022-08-19T00:41:17;20.20;99.90
8798;DHT22;4435;50.898;4.734;2022-08-19T00:46:30;20.20;99.90
8798;DHT22;4435;50.898;4.734;2022-08-19T00:48:59;20.30;99.90
8798;DHT22;4435;50.898;4.734;2022-08-19T00:51:27;20.30;99.90
8798;DHT22;4435;50.898;4.734;2022-08-19T00:53:57;20.30;99.90
8798;DHT22;4435;50.898;4.734;2022-08-19T00:56:24;20.30;99.90
8798;DHT22;4435;50.898;4.734;2022-08-19T00:58:55;20.30;99.90
8798;DHT22;4435;50.898;4.734;2022-08-19T01:01:21;20.30;99.90
8798;DHT22;4435;50.898;4.734;2022-08-19T01:03:48;20.30;99.90
8798;DHT22;4435;50.898;4.734;2022-08-19T01:06:13;20.30;99.90
8798;DHT22;4435;50.898;4.734;2022-08-19T01:08:40;20.30;99.90
8798;DHT22;4435;50.898;4.734;2022-08-19T01:11:07;20.40;99.90
8798;DHT22;4435;50.898;4.734;2022-08-19T01:13:34;20.40;99.90
8798;DHT22;4435;50.898;4.734;2022-08-19T01:16:05;20.40;99.90
8798;DHT22;4435;50.898;4.734;2022-08-19T01:18:35;20.30;99.90
8798;DHT22;4435;50.898;4.734;2022-08-19T01:21:10;20.40;99.90
8798;DHT22;4435;50.898;4.734;2022-08-19T01:23:37;20.40;99.90
8798;DHT22;4435;50.898;4.734;2022-08-19T01:26:14;20.30;99.90
8798;DHT22;4435;50.898;4.734;2022-08-19T01:28:41;20.30;99.90
8798;DHT22;4435;50.898;4.734;2022-08-19T01:31:15;20.20;99.90
8798;DHT22;4435;50.898;4.734;2022-08-19T01:33:41;20.20;99.90
8798;DHT22;4435;50.898;4.734;2022-08-19T01:36:14;20.20;99.90
8798;DHT22;4435;50.898;4.734;2022-08-19T01:38:42;20.20;99.90
8798;DHT22;4435;50.898;4.734;2022-08-19T01:41:10;20.20;99.90
8798;DHT22;4435;50.898;4.734;2022-08-19T01:43:36;20.20;99.90
8798;DHT22;4435;50.898;4.734;2022-08-19T01:46:03;20.20;99.90
8798;DHT22;4435;50.898;4.734;2022-08-19T01:48:35;20.20;99.90
8798;DHT22;4435;50.898;4.734;2022-08-19T01:51:01;20.10;99.90
8798;DHT22;4435;50.898;4.734;2022-08-19T01:53:26;20.10;99.90
8798;DHT22;4435;50.898;4.734;2022-08-19T01:55:52;20.10;99.90
8798;DHT22;4435;50.898;4.734;2022-08-19T01:58:22;20.00;99.90
8798;DHT22;4435;50.898;4.734;2022-08-19T02:00:49;20.00;99.90
8798;DHT22;4435;50.898;4.734;2022-08-19T02:03:15;20.00;99.90
8798;DHT22;4435;50.898;4.734;2022-08-19T02:05:41;19.90;99.90
8798;DHT22;4435;50.898;4.734;2022-08-19T02:08:08;19.90;99.90
8798;DHT22;4435;50.898;4.734;2022-08-19T02:10:39;19.90;99.90
8798;DHT22;4435;50.898;4.734;2022-08-19T02:13:06;19.90;99.90
8798;DHT22;4435;50.898;4.734;2022-08-19T02:15:32;19.90;99.90
8798;DHT22;4435;50.898;4.734;2022-08-19T02:17:57;19.80;99.90
8798;DHT22;4435;50.898;4.734;2022-08-19T02:20:23;19.80;99.90
8798;DHT22;4435;50.898;4.734;2022-08-19T02:22:49;19.90;99.90
8798;DHT22;4435;50.898;4.734;2022-08-19T02:25:15;19.90;99.90
8798;DHT22;4435;50.898;4.734;2022-08-19T02:27:42;19.80;99.90
8798;DHT22;4435;50.898;4.734;2022-08-19T02:30:11;19.80;99.90
8798;DHT22;4435;50.898;4.734;2022-08-19T02:32:37;19.80;99.90
8798;DHT22;4435;50.898;4.734;2022-08-19T02:35:03;19.80;99.90
8798;DHT22;4435;50.898;4.734;2022-08-19T02:37:29;19.80;99.90
8798;DHT22;4435;50.898;4.734;2022-08-19T02:40:14;19.80;99.90
8798;DHT22;4435;50.898;4.734;2022-08-19T02:42:40;19.70;99.90
8798;DHT22;4435;50.898;4.734;2022-08-19T02:45:07;19.70;99.90
8798;DHT22;4435;50.898;4.734;2022-08-19T02:47:33;19.70;99.90
8798;DHT22;4435;50.898;4.734;2022-08-19T02:50:01;19.70;99.90
8798;DHT22;4435;50.898;4.734;2022-08-19T02:52:27;19.70;99.90
8798;DHT22;4435;50.898;4.734;2022-08-19T02:54:53;19.70;99.90
8798;DHT22;4435;50.898;4.734;2022-08-19T02:57:18;19.60;99.90
8798;DHT22;4435;50.898;4.734;2022-08-19T02:59:44;19.60;99.90
8798;DHT22;4435;50.898;4.734;2022-08-19T03:02:10;19.60;99.90
8798;DHT22;4435;50.898;4.734;2022-08-19T03:04:35;19.60;99.90
8798;DHT22;4435;50.898;4.734;2022-08-19T03:07:01;19.60;99.90
8798;DHT22;4435;50.898;4.734;2022-08-19T03:09:27;19.50;99.90
8798;DHT22;4435;50.898;4.734;2022-08-19T03:11:52;19.50;99.90
8798;DHT22;4435;50.898;4.734;2022-08-19T03:14:18;19.50;99.90
8798;DHT22;4435;50.898;4.734;2022-08-19T03:16:50;19.50;99.90
8798;DHT22;4435;50.898;4.734;2022-08-19T03:19:18;19.50;99.90
8798;DHT22;4435;50.898;4.734;2022-08-19T03:21:44;19.40;99.90
8798;DHT22;4435;50.898;4.734;2022-08-19T03:24:11;19.40;99.90
8798;DHT22;4435;50.898;4.734;2022-08-19T03:26:46;19.40;99.90
8798;DHT22;4435;50.898;4.734;2022-08-19T03:29:13;19.40;99.90
8798;DHT22;4435;50.898;4.734;2022-08-19T03:31:41;19.30;99.90
8798;DHT22;4435;50.898;4.734;2022-08-19T03:34:09;19.30;99.90
8798;DHT22;4435;50.898;4.734;2022-08-19T03:36:35;19.40;99.90
8798;DHT22;4435;50.898;4.734;2022-08-19T03:39:01;19.30;99.90
8798;DHT22;4435;50.898;4.734;2022-08-19T03:41:32;19.20;99.90
8798;DHT22;4435;50.898;4.734;2022-08-19T03:43:59;19.20;99.90
8798;DHT22;4435;50.898;4.734;2022-08-19T03:46:28;19.10;99.90
8798;DHT22;4435;50.898;4.734;2022-08-19T03:48:56;19.00;99.90
8798;DHT22;4435;50.898;4.734;2022-08-19T03:51:29;19.00;99.90
8798;DHT22;4435;50.898;4.734;2022-08-19T03:53:57;19.00;99.90
8798;DHT22;4435;50.898;4.734;2022-08-19T03:56:23;19.00;99.90
8798;DHT22;4435;50.898;4.734;2022-08-19T03:58:51;19.10;99.90
8798;DHT22;4435;50.898;4.734;2022-08-19T04:01:20;19.10;99.90
8798;DHT22;4435;50.898;4.734;2022-08-19T04:03:46;19.20;99.90
8798;DHT22;4435;50.898;4.734;2022-08-19T04:06:24;19.20;99.90
8798;DHT22;4435;50.898;4.734;2022-08-19T04:08:52;19.20;99.90
8798;DHT22;4435;50.898;4.734;2022-08-19T04:11:25;19.20;99.90
8798;DHT22;4435;50.898;4.734;2022-08-19T04:13:52;19.20;99.90
8798;DHT22;4435;50.898;4.734;2022-08-19T04:16:19;19.20;99.90
8798;DHT22;4435;50.898;4.734;2022-08-19T04:18:46;19.10;99.90
8798;DHT22;4435;50.898;4.734;2022-08-19T04:21:21;19.00;99.90
8798;DHT22;4435;50.898;4.734;2022-08-19T04:23:47;19.00;99.90
8798;DHT22;4435;50.898;4.734;2022-08-19T04:26:14;18.90;99.90
8798;DHT22;4435;50.898;4.734;2022-08-19T04:28:42;18.90;99.90
8798;DHT22;4435;50.898;4.734;2022-08-19T04:31:13;19.00;99.90
8798;DHT22;4435;50.898;4.734;2022-08-19T04:33:39;18.90;99.90
8798;DHT22;4435;50.898;4.734;2022-08-19T04:36:05;19.00;99.90
8798;DHT22;4435;50.898;4.734;2022-08-19T04:38:31;19.00;99.90
8798;DHT22;4435;50.898;4.734;2022-08-19T04:40:56;18.90;99.90
8798;DHT22;4435;50.898;4.734;2022-08-19T04:43:40;18.90;99.90
8798;DHT22;4435;50.898;4.734;2022-08-19T04:46:11;18.90;99.90
8798;DHT22;4435;50.898;4.734;2022-08-19T04:48:38;18.80;99.90
8798;DHT22;4435;50.898;4.734;2022-08-19T04:51:09;18.80;99.90
8798;DHT22;4435;50.898;4.734;2022-08-19T04:53:37;18.80;99.90
8798;DHT22;4435;50.898;4.734;2022-08-19T04:56:13;18.70;99.90
8798;DHT22;4435;50.898;4.734;2022-08-19T04:58:41;18.80;99.90
8798;DHT22;4435;50.898;4.734;2022-08-19T05:01:09;18.80;99.90
8798;DHT22;4435;50.898;4.734;2022-08-19T05:03:35;18.70;99.90
8798;DHT22;4435;50.898;4.734;2022-08-19T05:06:10;18.80;99.90
8798;DHT22;4435;50.898;4.734;2022-08-19T05:08:38;18.70;99.90
8798;DHT22;4435;50.898;4.734;2022-08-19T05:11:18;18.80;99.90
8798;DHT22;4435;50.898;4.734;2022-08-19T05:13:45;18.80;99.90
8798;DHT22;4435;50.898;4.734;2022-08-19T05:16:13;18.70;99.90
8798;DHT22;4435;50.898;4.734;2022-08-19T05:18:39;18.80;99.90
8798;DHT22;4435;50.898;4.734;2022-08-19T05:21:24;18.80;99.90
8798;DHT22;4435;50.898;4.734;2022-08-19T05:24:09;18.80;99.90
8798;DHT22;4435;50.898;4.734;2022-08-19T05:26:36;18.70;99.90
8798;DHT22;4435;50.898;4.734;2022-08-19T05:29:02;18.70;99.90
8798;DHT22;4435;50.898;4.734;2022-08-19T05:31:29;18.70;99.90
8798;DHT22;4435;50.898;4.734;2022-08-19T05:33:55;18.70;99.90
8798;DHT22;4435;50.898;4.734;2022-08-19T05:36:27;18.70;99.90
8798;DHT22;4435;50.898;4.734;2022-08-19T05:38:53;18.70;99.90
8798;DHT22;4435;50.898;4.734;2022-08-19T05:41:20;18.60;99.90
8798;DHT22;4435;50.898;4.734;2022-08-19T05:43:56;18.70;99.90
8798;DHT22;4435;50.898;4.734;2022-08-19T05:46:22;18.70;99.90
8798;DHT22;4435;50.898;4.734;2022-08-19T05:48:48;18.70;99.90
8798;DHT22;4435;50.898;4.734;2022-08-19T05:51:15;18.70;99.90
8798;DHT22;4435;50.898;4.734;2022-08-19T05:53:41;18.70;99.90
8798;DHT22;4435;50.898;4.734;2022-08-19T05:56:08;18.70;99.90
8798;DHT22;4435;50.898;4.734;2022-08-19T05:58:36;18.70;99.90
8798;DHT22;4435;50.898;4.734;2022-08-19T06:01:03;18.70;99.90
8798;DHT22;4435;50.898;4.734;2022-08-19T06:03:32;18.70;99.90
8798;DHT22;4435;50.898;4.734;2022-08-19T06:05:59;18.60;99.90
8798;DHT22;4435;50.898;4.734;2022-08-19T06:08:26;18.70;99.90
8798;DHT22;4435;50.898;4.734;2022-08-19T06:10:53;18.70;99.90
8798;DHT22;4435;50.898;4.734;2022-08-19T06:13:18;18.70;99.90
8798;DHT22;4435;50.898;4.734;2022-08-19T06:15:45;18.70;99.90
8798;DHT22;4435;50.898;4.734;2022-08-19T06:18:13;18.80;99.90
8798;DHT22;4435;50.898;4.734;2022-08-19T06:20:40;18.70;99.90
8798;DHT22;4435;50.898;4.734;2022-08-19T06:23:06;18.80;99.90
8798;DHT22;4435;50.898;4.734;2022-08-19T06:25:32;18.80;99.90
8798;DHT22;4435;50.898;4.734;2022-08-19T06:27:58;18.90;99.90
8798;DHT22;4435;50.898;4.734;2022-08-19T06:30:23;18.90;99.90
8798;DHT22;4435;50.898;4.734;2022-08-19T06:32:49;18.90;99.90
8798;DHT22;4435;50.898;4.734;2022-08-19T06:35:16;18.90;99.90
8798;DHT22;4435;50.898;4.734;2022-08-19T06:37:42;18.90;99.90
8798;DHT22;4435;50.898;4.734;2022-08-19T06:40:09;18.90;99.90
8798;DHT22;4435;50.898;4.734;2022-08-19T06:42:36;18.90;99.90
8798;DHT22;4435;50.898;4.734;2022-08-19T06:45:04;18.90;99.90
8798;DHT22;4435;50.898;4.734;2022-08-19T06:47:31;19.00;99.90
8798;DHT22;4435;50.898;4.734;2022-08-19T06:49:59;19.00;99.90
8798;DHT22;4435;50.898;4.734;2022-08-19T06:52:33;19.10;99.90
8798;DHT22;4435;50.898;4.734;2022-08-19T06:55:01;19.10;99.90
8798;DHT22;4435;50.898;4.734;2022-08-19T06:57:27;19.10;99.90
8798;DHT22;4435;50.898;4.734;2022-08-19T06:59:53;19.20;99.90
8798;DHT22;4435;50.898;4.734;2022-08-19T07:02:21;19.30;99.90
8798;DHT22;4435;50.898;4.734;2022-08-19T07:04:51;19.30;99.90
8798;DHT22;4435;50.898;4.734;2022-08-19T07:07:19;19.40;99.90
8798;DHT22;4435;50.898;4.734;2022-08-19T07:09:45;19.40;99.90
8798;DHT22;4435;50.898;4.734;2022-08-19T07:12:13;19.30;99.90
8798;DHT22;4435;50.898;4.734;2022-08-19T07:14:42;19.20;99.90
8798;DHT22;4435;50.898;4.734;2022-08-19T07:17:12;19.30;99.90
8798;DHT22;4435;50.898;4.734;2022-08-19T07:19:38;19.20;99.90
8798;DHT22;4435;50.898;4.734;2022-08-19T07:22:06;19.20;99.90
8798;DHT22;4435;50.898;4.734;2022-08-19T07:24:32;19.30;99.90
8798;DHT22;4435;50.898;4.734;2022-08-19T07:27:00;19.40;99.90
8798;DHT22;4435;50.898;4.734;2022-08-19T07:29:30;19.50;99.90
8798;DHT22;4435;50.898;4.734;2022-08-19T07:31:56;19.50;99.90
8798;DHT22;4435;50.898;4.734;2022-08-19T07:34:25;19.40;99.90
8798;DHT22;4435;50.898;4.734;2022-08-19T07:36:51;19.50;99.90
8798;DHT22;4435;50.898;4.734;2022-08-19T07:39:23;19.50;99.90
8798;DHT22;4435;50.898;4.734;2022-08-19T07:41:50;19.50;99.90
8798;DHT22;4435;50.898;4.734;2022-08-19T07:44:18;19.60;99.90
8798;DHT22;4435;50.898;4.734;2022-08-19T07:46:49;19.70;99.90
8798;DHT22;4435;50.898;4.734;2022-08-19T07:49:16;19.70;99.90
8798;DHT22;4435;50.898;4.734;2022-08-19T07:51:50;19.80;99.90
8798;DHT22;4435;50.898;4.734;2022-08-19T07:54:17;19.90;99.90
8798;DHT22;4435;50.898;4.734;2022-08-19T07:56:43;20.00;99.90
8798;DHT22;4435;50.898;4.734;2022-08-19T07:59:10;20.10;99.90
8798;DHT22;4435;50.898;4.734;2022-08-19T08:01:37;20.10;99.90
8798;DHT22;4435;50.898;4.734;2022-08-19T08:04:05;20.20;99.90
8798;DHT22;4435;50.898;4.734;2022-08-19T08:06:49;20.20;99.90
8798;DHT22;4435;50.898;4.734;2022-08-19T08:09:37;20.20;99.90
8798;DHT22;4435;50.898;4.734;2022-08-19T08:12:07;20.20;99.90
8798;DHT22;4435;50.898;4.734;2022-08-19T08:14:47;20.30;99.90
8798;DHT22;4435;50.898;4.734;2022-08-19T08:17:15;20.40;99.90
8798;DHT22;4435;50.898;4.734;2022-08-19T08:19:42;20.40;99.90
8798;DHT22;4435;50.898;4.734;2022-08-19T08:22:08;20.40;99.90
8798;DHT22;4435;50.898;4.734;2022-08-19T08:24:54;20.40;99.90
8798;DHT22;4435;50.898;4.734;2022-08-19T08:27:24;20.40;99.90
8798;DHT22;4435;50.898;4.734;2022-08-19T08:29:49;20.50;99.90
8798;DHT22;4435;50.898;4.734;2022-08-19T08:32:15;20.60;99.90
8798;DHT22;4435;50.898;4.734;2022-08-19T08:34:41;20.70;99.90
8798;DHT22;4435;50.898;4.734;2022-08-19T08:37:07;20.70;99.90
8798;DHT22;4435;50.898;4.734;2022-08-19T08:39:33;20.70;99.90
8798;DHT22;4435;50.898;4.734;2022-08-19T08:44:43;20.70;99.90
8798;DHT22;4435;50.898;4.734;2022-08-19T08:47:17;20.80;99.90
8798;DHT22;4435;50.898;4.734;2022-08-19T08:50:02;20.90;99.90
8798;DHT22;4435;50.898;4.734;2022-08-19T08:52:31;21.00;99.90
8798;DHT22;4435;50.898;4.734;2022-08-19T08:55:08;21.00;99.90
8798;DHT22;4435;50.898;4.734;2022-08-19T09:00:31;21.00;99.90
8798;DHT22;4435;50.898;4.734;2022-08-19T09:02:59;21.00;99.90
8798;DHT22;4435;50.898;4.734;2022-08-19T09:05:38;21.00;99.90
8798;DHT22;4435;50.898;4.734;2022-08-19T09:08:15;21.00;99.90
8798;DHT22;4435;50.898;4.734;2022-08-19T09:10:46;21.00;99.90
8798;DHT22;4435;50.898;4.734;2022-08-19T09:13:20;20.90;99.90
8798;DHT22;4435;50.898;4.734;2022-08-19T09:16:34;21.00;99.90
8798;DHT22;4435;50.898;4.734;2022-08-19T09:18:47;21.10;99.90
8798;DHT22;4435;50.898;4.734;2022-08-19T09:21:15;21.10;99.90
8798;DHT22;4435;50.898;4.734;2022-08-19T09:23:41;21.10;99.90
8798;DHT22;4435;50.898;4.734;2022-08-19T09:26:11;21.20;99.90
8798;DHT22;4435;50.898;4.734;2022-08-19T09:28:40;21.20;99.90
8798;DHT22;4435;50.898;4.734;2022-08-19T09:31:29;21.30;99.90
8798;DHT22;4435;50.898;4.734;2022-08-19T09:33:55;21.30;99.90
8798;DHT22;4435;50.898;4.734;2022-08-19T09:36:26;21.20;99.90
8798;DHT22;4435;50.898;4.734;2022-08-19T09:38:52;21.20;99.90
8798;DHT22;4435;50.898;4.734;2022-08-19T09:41:20;21.20;99.90
8798;DHT22;4435;50.898;4.734;2022-08-19T09:43:47;21.20;99.90
8798;DHT22;4435;50.898;4.734;2022-08-19T09:46:13;21.30;99.90
8798;DHT22;4435;50.898;4.734;2022-08-19T09:48:42;21.30;99.90
8798;DHT22;4435;50.898;4.734;2022-08-19T09:51:16;21.30;99.90
8798;DHT22;4435;50.898;4.734;2022-08-19T09:53:45;21.40;99.90
8798;DHT22;4435;50.898;4.734;2022-08-19T09:56:13;21.40;99.90
8798;DHT22;4435;50.898;4.734;2022-08-19T09:58:39;21.40;99.90
8798;DHT22;4435;50.898;4.734;2022-08-19T10:01:08;21.50;99.90
8798;DHT22;4435;50.898;4.734;2022-08-19T10:03:35;21.50;99.90
8798;DHT22;4435;50.898;4.734;2022-08-19T10:06:04;21.50;99.90
8798;DHT22;4435;50.898;4.734;2022-08-19T10:08:34;21.50;99.90
8798;DHT22;4435;50.898;4.734;2022-08-19T10:11:00;21.50;99.90
8798;DHT22;4435;50.898;4.734;2022-08-19T10:13:28;21.40;99.90
8798;DHT22;4435;50.898;4.734;2022-08-19T10:15:57;21.40;99.90
8798;DHT22;4435;50.898;4.734;2022-08-19T10:18:27;21.50;99.90
8798;DHT22;4435;50.898;4.734;2022-08-19T10:21:12;21.50;99.90
8798;DHT22;4435;50.898;4.734;2022-08-19T10:23:40;21.50;99.90
8798;DHT22;4435;50.898;4.734;2022-08-19T10:26:11;21.60;99.90
8798;DHT22;4435;50.898;4.734;2022-08-19T10:28:37;21.60;99.90
8798;DHT22;4435;50.898;4.734;2022-08-19T10:31:09;21.70;99.90
8798;DHT22;4435;50.898;4.734;2022-08-19T10:33:35;21.70;99.90
8798;DHT22;4435;50.898;4.734;2022-08-19T10:36:21;21.70;99.90
8798;DHT22;4435;50.898;4.734;2022-08-19T10:38:51;21.70;99.90
8798;DHT22;4435;50.898;4.734;2022-08-19T10:41:20;21.70;99.90
8798;DHT22;4435;50.898;4.734;2022-08-19T10:43:47;21.70;99.90
8798;DHT22;4435;50.898;4.734;2022-08-19T10:46:16;21.70;99.90
8798;DHT22;4435;50.898;4.734;2022-08-19T10:48:43;21.80;99.90
8798;DHT22;4435;50.898;4.734;2022-08-19T10:51:10;21.80;99.90
8798;DHT22;4435;50.898;4.734;2022-08-19T10:53:55;21.80;99.90
8798;DHT22;4435;50.898;4.734;2022-08-19T10:56:22;21.70;99.90
8798;DHT22;4435;50.898;4.734;2022-08-19T10:59:06;21.80;99.90
8798;DHT22;4435;50.898;4.734;2022-08-19T11:01:34;21.80;99.90
8798;DHT22;4435;50.898;4.734;2022-08-19T11:04:01;21.80;99.90
8798;DHT22;4435;50.898;4.734;2022-08-19T11:06:28;21.90;99.90
8798;DHT22;4435;50.898;4.734;2022-08-19T11:08:55;21.90;99.90
8798;DHT22;4435;50.898;4.734;2022-08-19T11:11:21;21.90;99.90
8798;DHT22;4435;50.898;4.734;2022-08-19T11:13:48;21.90;99.90
8798;DHT22;4435;50.898;4.734;2022-08-19T11:16:20;21.90;99.90
8798;DHT22;4435;50.898;4.734;2022-08-19T11:18:53;21.90;99.90
8798;DHT22;4435;50.898;4.734;2022-08-19T11:21:21;21.90;99.90
8798;DHT22;4435;50.898;4.734;2022-08-19T11:23:48;22.00;99.90
8798;DHT22;4435;50.898;4.734;2022-08-19T11:26:15;21.90;99.90
8798;DHT22;4435;50.898;4.734;2022-08-19T11:28:41;22.00;99.90
8798;DHT22;4435;50.898;4.734;2022-08-19T11:31:13;22.00;99.90
8798;DHT22;4435;50.898;4.734;2022-08-19T11:33:40;22.10;99.90
8798;DHT22;4435;50.898;4.734;2022-08-19T11:36:06;22.10;99.90
8798;DHT22;4435;50.898;4.734;2022-08-19T11:38:33;22.20;99.90
8798;DHT22;4435;50.898;4.734;2022-08-19T11:41:03;22.10;99.90
8798;DHT22;4435;50.898;4.734;2022-08-19T11:43:29;22.10;99.90
8798;DHT22;4435;50.898;4.734;2022-08-19T11:45:56;22.20;99.90
8798;DHT22;4435;50.898;4.734;2022-08-19T11:48:23;22.20;99.90
8798;DHT22;4435;50.898;4.734;2022-08-19T11:50:49;22.20;99.90
8798;DHT22;4435;50.898;4.734;2022-08-19T11:53:19;22.10;99.90
8798;DHT22;4435;50.898;4.734;2022-08-19T11:55:46;22.00;99.90
8798;DHT22;4435;50.898;4.734;2022-08-19T11:58:14;22.00;99.90
8798;DHT22;4435;50.898;4.734;2022-08-19T12:00:41;21.90;99.90
8798;DHT22;4435;50.898;4.734;2022-08-19T12:03:07;21.90;99.90
8798;DHT22;4435;50.898;4.734;2022-08-19T12:05:35;21.90;99.90
8798;DHT22;4435;50.898;4.734;2022-08-19T12:08:01;21.90;99.90
8798;DHT22;4435;50.898;4.734;2022-08-19T12:10:27;21.80;99.90
8798;DHT22;4435;50.898;4.734;2022-08-19T12:12:53;21.80;99.90
8798;DHT22;4435;50.898;4.734;2022-08-19T12:15:18;21.80;99.90
8798;DHT22;4435;50.898;4.734;2022-08-19T12:17:44;21.90;99.90
8798;DHT22;4435;50.898;4.734;2022-08-19T12:20:11;21.90;99.90
8798;DHT22;4435;50.898;4.734;2022-08-19T12:22:38;21.90;99.90
8798;DHT22;4435;50.898;4.734;2022-08-19T12:25:08;21.90;99.90
8798;DHT22;4435;50.898;4.734;2022-08-19T12:27:34;21.90;99.90
8798;DHT22;4435;50.898;4.734;2022-08-19T12:30:02;21.90;99.90
8798;DHT22;4435;50.898;4.734;2022-08-19T12:32:28;22.00;99.90
8798;DHT22;4435;50.898;4.734;2022-08-19T12:34:54;22.00;99.90
8798;DHT22;4435;50.898;4.734;2022-08-19T12:37:20;22.10;99.90
8798;DHT22;4435;50.898;4.734;2022-08-19T12:39:46;22.20;99.90
8798;DHT22;4435;50.898;4.734;2022-08-19T12:42:13;22.10;99.90
8798;DHT22;4435;50.898;4.734;2022-08-19T12:44:40;22.10;99.90
8798;DHT22;4435;50.898;4.734;2022-08-19T12:47:08;22.10;99.90
8798;DHT22;4435;50.898;4.734;2022-08-19T12:49:34;22.10;99.90
8798;DHT22;4435;50.898;4.734;2022-08-19T12:52:03;22.20;99.90
8798;DHT22;4435;50.898;4.734;2022-08-19T12:54:30;22.20;99.90
8798;DHT22;4435;50.898;4.734;2022-08-19T12:56:57;22.30;99.90
8798;DHT22;4435;50.898;4.734;2022-08-19T12:59:23;22.30;99.90
8798;DHT22;4435;50.898;4.734;2022-08-19T13:01:49;22.30;99.90
8798;DHT22;4435;50.898;4.734;2022-08-19T13:04:15;22.40;99.90
8798;DHT22;4435;50.898;4.734;2022-08-19T13:06:42;22.40;99.90
8798;DHT22;4435;50.898;4.734;2022-08-19T13:09:08;22.50;99.90
8798;DHT22;4435;50.898;4.734;2022-08-19T13:11:34;22.50;99.90
8798;DHT22;4435;50.898;4.734;2022-08-19T13:14:01;22.60;99.90
8798;DHT22;4435;50.898;4.734;2022-08-19T13:16:28;22.70;99.90
8798;DHT22;4435;50.898;4.734;2022-08-19T13:18:55;22.80;99.90
8798;DHT22;4435;50.898;4.734;2022-08-19T13:21:24;22.80;99.90
8798;DHT22;4435;50.898;4.734;2022-08-19T13:23:51;22.90;99.90
8798;DHT22;4435;50.898;4.734;2022-08-19T13:26:17;22.90;99.90
8798;DHT22;4435;50.898;4.734;2022-08-19T13:28:44;23.00;99.90
8798;DHT22;4435;50.898;4.734;2022-08-19T13:31:31;23.10;99.90
8798;DHT22;4435;50.898;4.734;2022-08-19T13:34:18;23.20;99.90
8798;DHT22;4435;50.898;4.734;2022-08-19T13:36:45;23.20;99.90
8798;DHT22;4435;50.898;4.734;2022-08-19T13:39:12;23.30;99.90
8798;DHT22;4435;50.898;4.734;2022-08-19T13:41:44;23.30;99.90
8798;DHT22;4435;50.898;4.734;2022-08-19T13:44:14;23.30;99.90
8798;DHT22;4435;50.898;4.734;2022-08-19T13:46:41;23.30;99.90
8798;DHT22;4435;50.898;4.734;2022-08-19T13:49:10;23.30;99.90
8798;DHT22;4435;50.898;4.734;2022-08-19T13:51:38;23.20;99.90
8798;DHT22;4435;50.898;4.734;2022-08-19T13:54:06;23.20;99.90
8798;DHT22;4435;50.898;4.734;2022-08-19T13:56:32;23.10;99.90
8798;DHT22;4435;50.898;4.734;2022-08-19T13:58:58;23.10;99.90
8798;DHT22;4435;50.898;4.734;2022-08-19T14:01:24;23.10;99.90
8798;DHT22;4435;50.898;4.734;2022-08-19T14:03:49;23.10;99.90
8798;DHT22;4435;50.898;4.734;2022-08-19T14:06:15;23.20;99.90
8798;DHT22;4435;50.898;4.734;2022-08-19T14:08:42;23.20;99.90
8798;DHT22;4435;50.898;4.734;2022-08-19T14:11:08;23.30;99.90
8798;DHT22;4435;50.898;4.734;2022-08-19T14:13:35;23.30;99.90
8798;DHT22;4435;50.898;4.734;2022-08-19T14:16:00;23.30;99.90
8798;DHT22;4435;50.898;4.734;2022-08-19T14:18:26;23.30;99.90
8798;DHT22;4435;50.898;4.734;2022-08-19T14:20:53;23.30;99.90
8798;DHT22;4435;50.898;4.734;2022-08-19T14:23:19;23.30;99.90
8798;DHT22;4435;50.898;4.734;2022-08-19T14:25:45;23.40;99.90
8798;DHT22;4435;50.898;4.734;2022-08-19T14:28:11;23.50;99.90
8798;DHT22;4435;50.898;4.734;2022-08-19T14:30:38;23.50;99.90
8798;DHT22;4435;50.898;4.734;2022-08-19T14:33:04;23.60;99.90
8798;DHT22;4435;50.898;4.734;2022-08-19T14:35:32;23.60;99.90
8798;DHT22;4435;50.898;4.734;2022-08-19T14:38:01;23.50;99.90
8798;DHT22;4435;50.898;4.734;2022-08-19T14:40:29;23.50;99.90
8798;DHT22;4435;50.898;4.734;2022-08-19T14:43:01;23.60;99.90
8798;DHT22;4435;50.898;4.734;2022-08-19T14:45:31;23.50;99.90
8798;DHT22;4435;50.898;4.734;2022-08-19T14:47:57;23.50;99.90
8798;DHT22;4435;50.898;4.734;2022-08-19T14:50:24;23.50;99.90
8798;DHT22;4435;50.898;4.734;2022-08-19T14:52:59;23.40;99.90
8798;DHT22;4435;50.898;4.734;2022-08-19T14:55:25;23.50;99.90
8798;DHT22;4435;50.898;4.734;2022-08-19T14:57:51;23.60;99.90
8798;DHT22;4435;50.898;4.734;2022-08-19T15:00:17;23.60;99.90
8798;DHT22;4435;50.898;4.734;2022-08-19T15:02:42;23.50;99.90
8798;DHT22;4435;50.898;4.734;2022-08-19T15:05:09;23.60;99.90
8798;DHT22;4435;50.898;4.734;2022-08-19T15:07:36;23.50;99.90
8798;DHT22;4435;50.898;4.734;2022-08-19T15:10:03;23.50;99.90
8798;DHT22;4435;50.898;4.734;2022-08-19T15:12:29;23.40;99.90
8798;DHT22;4435;50.898;4.734;2022-08-19T15:14:54;23.30;99.90
8798;DHT22;4435;50.898;4.734;2022-08-19T15:17:20;23.20;99.90
8798;DHT22;4435;50.898;4.734;2022-08-19T15:19:46;23.00;99.90
8798;DHT22;4435;50.898;4.734;2022-08-19T15:22:12;22.80;99.90
8798;DHT22;4435;50.898;4.734;2022-08-19T15:24:39;22.70;99.90
8798;DHT22;4435;50.898;4.734;2022-08-19T15:27:04;22.60;99.90
8798;DHT22;4435;50.898;4.734;2022-08-19T15:29:31;22.50;99.90
8798;DHT22;4435;50.898;4.734;2022-08-19T15:31:58;22.50;99.90
8798;DHT22;4435;50.898;4.734;2022-08-19T15:34:25;22.40;99.90
8798;DHT22;4435;50.898;4.734;2022-08-19T15:36:51;22.30;99.90
8798;DHT22;4435;50.898;4.734;2022-08-19T15:39:17;22.30;99.90
8798;DHT22;4435;50.898;4.734;2022-08-19T15:41:44;22.30;99.90
8798;DHT22;4435;50.898;4.734;2022-08-19T15:44:16;22.30;99.90
8798;DHT22;4435;50.898;4.734;2022-08-19T15:46:45;22.30;99.90
8798;DHT22;4435;50.898;4.734;2022-08-19T15:49:12;22.30;99.90
8798;DHT22;4435;50.898;4.734;2022-08-19T15:51:40;22.30;99.90
8798;DHT22;4435;50.898;4.734;2022-08-19T15:54:09;22.30;99.90
8798;DHT22;4435;50.898;4.734;2022-08-19T15:56:36;22.30;99.90
8798;DHT22;4435;50.898;4.734;2022-08-19T15:59:21;22.20;99.90
8798;DHT22;4435;50.898;4.734;2022-08-19T16:02:05;22.20;99.90
8798;DHT22;4435;50.898;4.734;2022-08-19T16:04:51;22.20;99.90
8798;DHT22;4435;50.898;4.734;2022-08-19T16:07:35;22.20;99.90
8798;DHT22;4435;50.898;4.734;2022-08-19T16:10:01;22.30;99.90
8798;DHT22;4435;50.898;4.734;2022-08-19T16:12:27;22.40;99.90
8798;DHT22;4435;50.898;4.734;2022-08-19T16:14:57;22.40;99.90
8798;DHT22;4435;50.898;4.734;2022-08-19T16:17:24;22.40;99.90
8798;DHT22;4435;50.898;4.734;2022-08-19T16:19:50;22.50;99.90